createdAt,value
2022-10-23T00:03:50.660Z,21.15
2022-10-23T00:10:39.539Z,21.11
2022-10-23T00:17:10.375Z,21.09
2022-10-23T00:23:36.459Z,21.06
2022-10-23T00:30:00.895Z,21.03
2022-10-23T00:36:24.381Z,21.00
2022-10-23T00:42:47.365Z,20.97
2022-10-23T00:49:19.101Z,20.95
2022-10-23T00:56:00.510Z,20.92
2022-10-23T01:02:30.434Z,20.89
2022-10-23T01:09:11.571Z,20.86
2022-10-23T01:23:00.357Z,20.81
2022-10-23T01:29:38.882Z,20.79
2022-10-23T01:36:04.589Z,20.77
2022-10-23T01:42:40.360Z,20.74
2022-10-23T01:49:10.771Z,20.73
2022-10-23T01:55:35.700Z,20.71
2022-10-23T02:01:52.580Z,20.68
2022-10-23T02:08:04.625Z,20.66
2022-10-23T02:14:24.499Z,20.64
2022-10-23T02:20:39.764Z,20.62
2022-10-23T02:27:13.845Z,20.60
2022-10-23T02:33:16.628Z,20.58
2022-10-23T02:39:46.494Z,20.57
2022-10-23T02:46:33.784Z,20.55
2022-10-23T02:53:20.329Z,20.53
2022-10-23T02:59:47.374Z,20.52
2022-10-23T03:06:22.062Z,20.50
2022-10-23T03:12:48.337Z,20.47
2022-10-23T03:25:57.542Z,20.43
2022-10-23T03:32:26.785Z,20.42
2022-10-23T03:52:00.580Z,20.36
2022-10-23T03:58:25.119Z,20.35
2022-10-23T04:11:38.420Z,20.32
2022-10-23T04:17:47.490Z,20.30
2022-10-23T04:30:47.890Z,20.28
2022-10-23T04:36:56.591Z,20.34
2022-10-23T04:43:26.016Z,20.55
2022-10-23T04:50:13.401Z,20.88
2022-10-23T04:56:37.044Z,21.25
2022-10-23T05:03:02.876Z,21.64
2022-10-23T05:09:31.280Z,21.98
2022-10-23T05:16:12.498Z,22.28
2022-10-23T05:22:31.591Z,22.51
2022-10-23T05:28:48.457Z,22.69
2022-10-23T05:35:13.929Z,22.80
2022-10-23T05:41:20.648Z,22.86
2022-10-23T05:47:50.723Z,22.88
2022-10-23T05:54:11.549Z,22.88
2022-10-23T06:00:40.739Z,22.87
2022-10-23T06:07:05.131Z,22.85
2022-10-23T06:13:36.069Z,22.81
2022-10-23T06:26:42.256Z,22.73
2022-10-23T06:32:52.571Z,22.68
2022-10-23T06:39:26.133Z,22.61
2022-10-23T06:45:49.379Z,22.52
2022-10-23T06:52:14.441Z,22.43
2022-10-23T06:59:05.680Z,22.35
2022-10-23T07:05:29.898Z,22.29
2022-10-23T07:11:57.399Z,22.22
2022-10-23T07:18:17.033Z,22.15
2022-10-23T07:24:40.529Z,22.08
2022-10-23T07:31:00.174Z,22.03
2022-10-23T07:37:36.971Z,21.97
2022-10-23T07:44:03.455Z,21.92
2022-10-23T07:50:35.427Z,21.85
2022-10-23T07:57:00.269Z,21.79
2022-10-23T08:03:24.386Z,21.73
2022-10-23T08:09:56.599Z,21.68
2022-10-23T08:16:26.721Z,21.65
2022-10-23T08:22:58.647Z,21.60
2022-10-23T08:29:24.991Z,21.57
2022-10-23T08:35:49.178Z,21.53
2022-10-23T08:42:21.316Z,21.50
2022-10-23T08:48:44.728Z,21.47
2022-10-23T08:55:22.064Z,21.45
2022-10-23T09:02:02.255Z,21.42
2022-10-23T09:08:41.219Z,21.40
2022-10-23T09:15:22.580Z,23.23
2022-10-23T09:21:47.111Z,26.01
2022-10-23T09:28:20.658Z,25.93
2022-10-23T09:34:45.196Z,24.34
2022-10-23T09:41:13.873Z,23.50
2022-10-23T09:47:41.534Z,22.93
2022-10-23T09:53:49.272Z,22.49
2022-10-23T10:00:13.622Z,22.17
2022-10-23T10:06:39.018Z,21.89
2022-10-23T10:13:25.283Z,21.68
2022-10-23T10:20:05.240Z,23.92
2022-10-23T10:26:37.893Z,24.84
2022-10-23T10:33:05.914Z,23.50
2022-10-23T10:39:35.279Z,22.86
2022-10-23T10:46:31.973Z,22.42
2022-10-23T10:53:01.776Z,22.05
2022-10-23T10:59:27.954Z,21.80
2022-10-23T11:05:54.842Z,21.59
2022-10-23T11:12:03.599Z,21.42
2022-10-23T11:18:43.910Z,21.29
2022-10-23T11:25:04.892Z,21.19
2022-10-23T11:31:12.158Z,21.12
2022-10-23T11:37:32.615Z,21.09
2022-10-23T11:44:09.634Z,21.10
2022-10-23T11:57:34.059Z,21.14
2022-10-23T12:04:03.585Z,21.14
2022-10-23T12:10:46.791Z,21.13
2022-10-23T12:30:24.303Z,23.35
2022-10-23T12:36:38.276Z,22.73
2022-10-23T12:43:16.149Z,22.31
2022-10-23T12:50:04.685Z,21.95
2022-10-23T12:56:37.743Z,21.73
2022-10-23T13:02:57.677Z,21.54
2022-10-23T13:09:27.930Z,21.38
2022-10-23T13:16:05.511Z,21.24
2022-10-23T13:36:06.123Z,21.04
2022-10-23T13:42:29.529Z,21.10
2022-10-23T13:48:49.259Z,21.23
2022-10-23T13:54:56.387Z,21.38
2022-10-23T14:01:16.650Z,21.56
2022-10-23T14:07:37.967Z,21.78
2022-10-23T14:13:43.242Z,21.98
2022-10-23T14:20:17.283Z,22.22
2022-10-23T14:26:44.839Z,22.48
2022-10-23T14:33:02.087Z,22.69
2022-10-23T14:39:38.079Z,22.83
2022-10-23T14:46:00.083Z,22.94
2022-10-23T14:52:25.338Z,23.02
2022-10-23T14:58:43.244Z,23.09
2022-10-23T15:05:08.527Z,23.17
2022-10-23T15:11:26.161Z,23.30
2022-10-23T15:17:54.596Z,23.44
2022-10-23T15:24:18.447Z,23.56
2022-10-23T15:30:43.602Z,23.66
2022-10-23T15:37:10.381Z,23.72
2022-10-23T15:43:23.491Z,23.76
2022-10-23T15:49:57.030Z,23.77
2022-10-23T15:56:15.919Z,23.78
2022-10-23T16:02:45.073Z,23.76
2022-10-23T16:09:11.704Z,23.71
2022-10-23T16:15:52.818Z,23.67
2022-10-23T16:28:40.081Z,23.71
2022-10-23T16:34:41.733Z,23.80
2022-10-23T16:40:48.818Z,23.87
2022-10-23T16:47:24.401Z,23.92
2022-10-23T17:00:29.846Z,23.98
2022-10-23T17:06:25.852Z,24.00
2022-10-23T17:12:24.641Z,24.01
2022-10-23T17:18:43.845Z,23.98
2022-10-23T17:31:33.857Z,23.97
2022-10-23T17:37:42.756Z,23.97
2022-10-23T17:43:40.923Z,23.95
2022-10-23T17:50:03.712Z,23.95
2022-10-23T17:56:29.094Z,23.95
2022-10-23T18:02:49.814Z,23.93
2022-10-23T18:08:58.741Z,23.90
2022-10-23T18:15:07.575Z,23.90
2022-10-23T18:21:33.311Z,23.90
2022-10-23T18:34:46.055Z,23.87
2022-10-23T18:41:21.551Z,23.84
2022-10-23T18:54:44.076Z,23.74
2022-10-23T19:01:02.077Z,23.67
2022-10-23T19:07:31.644Z,23.61
2022-10-23T19:13:55.832Z,23.56
2022-10-23T19:20:04.737Z,23.50
2022-10-23T19:26:04.900Z,23.45
2022-10-23T19:32:30.396Z,23.39
2022-10-23T19:38:54.718Z,23.34
2022-10-23T19:45:04.497Z,23.28
2022-10-23T19:51:31.281Z,23.24
2022-10-23T19:57:28.914Z,23.19
2022-10-23T20:04:04.578Z,23.14
2022-10-23T20:10:34.750Z,23.09
2022-10-23T20:16:43.925Z,23.04
2022-10-23T20:23:08.212Z,22.99
2022-10-23T20:29:32.536Z,22.94
2022-10-23T20:35:56.822Z,22.90
2022-10-23T20:42:21.045Z,22.84
2022-10-23T20:48:39.715Z,22.80
2022-10-23T20:55:05.445Z,22.76
2022-10-23T21:01:42.246Z,22.72
2022-10-23T21:14:38.868Z,22.62
2022-10-23T21:28:05.830Z,22.54
2022-10-23T21:34:31.894Z,22.50
2022-10-23T21:54:35.411Z,22.36
2022-10-23T22:00:48.066Z,22.33
2022-10-23T22:07:11.699Z,22.28
2022-10-23T22:13:38.945Z,22.25
2022-10-23T22:20:03.442Z,22.21
2022-10-23T22:26:27.737Z,22.15
2022-10-23T22:32:52.753Z,22.11
2022-10-23T22:39:17.799Z,22.05
2022-10-23T22:45:43.981Z,22.00
2022-10-23T22:52:14.096Z,21.95
2022-10-23T22:58:40.465Z,21.90
2022-10-23T23:04:58.472Z,21.85
2022-10-23T23:11:22.687Z,21.80
2022-10-23T23:17:47.219Z,21.76
2022-10-23T23:24:18.505Z,21.71
2022-10-23T23:37:21.596Z,21.63
2022-10-23T23:43:46.609Z,21.59
2022-10-23T23:50:12.860Z,21.54
2022-10-23T23:56:38.331Z,21.50
